Time;durP1;ratioP1;P1;durP2;ratioP2;P2;SDS_P1;SDS_P2;PMS_P1;PMS_P2;Temp;Humidity;BMP_temperature;BMP_pressure;BME280_temperature;BME280_humidity;BME280_pressure;Samples;Min_cycle;Max_cycle;Signal;HPM_P1;HPM_P2
2023/03/27 00:01:14;;;;;;;0.40;0.40;;;;;;;;;;5080626;28;20222;-62
2023/03/27 00:03:43;;;;;;;0.50;0.50;;;;;;;;;;5080387;28;20309;-63
2023/03/27 00:06:15;;;;;;;0.70;0.63;;;;;;;;;;5080373;28;20202;-64
2023/03/27 00:08:43;;;;;;;0.43;0.43;;;;;;;;;;5080466;28;20654;-64
2023/03/27 00:11:11;;;;;;;0.50;0.30;;;;;;;;;;5079837;28;20250;-63
2023/03/27 00:13:40;;;;;;;0.73;0.30;;;;;;;;;;5080128;28;20232;-64
2023/03/27 00:16:17;;;;;;;0.60;0.60;;;;;;;;;;5080492;28;20210;-63
2023/03/27 00:18:45;;;;;;;1.23;0.50;;;;;;;;;;5080371;28;20210;-63
2023/03/27 00:21:15;;;;;;;2.07;0.60;;;;;;;;;;5080346;28;20226;-63
2023/03/27 00:23:43;;;;;;;1.17;0.47;;;;;;;;;;5079969;28;20258;-63
2023/03/27 00:26:11;;;;;;;0.93;0.70;;;;;;;;;;5080030;28;20238;-63
2023/03/27 00:28:39;;;;;;;1.27;0.70;;;;;;;;;;5080382;28;20202;-64
2023/03/27 00:31:10;;;;;;;0.60;0.60;;;;;;;;;;5079797;28;20258;-63
2023/03/27 00:33:38;;;;;;;0.30;0.30;;;;;;;;;;5079993;28;20246;-63
2023/03/27 00:36:06;;;;;;;7.37;4.77;;;;;;;;;;5080135;28;20214;-63
2023/03/27 00:38:38;;;;;;;26.27;13.67;;;;;;;;;;5079952;28;20289;-63
2023/03/27 00:41:07;;;;;;;12.97;7.33;;;;;;;;;;5079446;28;20222;-63
2023/03/27 00:43:36;;;;;;;8.37;4.33;;;;;;;;;;5079644;28;20232;-63
2023/03/27 00:46:06;;;;;;;19.43;8.77;;;;;;;;;;5079874;28;20221;-63
2023/03/27 00:48:37;;;;;;;1.40;1.10;;;;;;;;;;5079419;28;20206;-63
2023/03/27 00:51:05;;;;;;;0.60;0.60;;;;;;;;;;5078930;28;20226;-64
2023/03/27 00:53:33;;;;;;;0.50;0.50;;;;;;;;;;5079585;28;20229;-63
2023/03/27 00:56:05;;;;;;;0.27;0.27;;;;;;;;;;5079554;28;20244;-63
2023/03/27 00:58:36;;;;;;;0.40;0.40;;;;;;;;;;5079598;28;20206;-63
2023/03/27 01:01:04;;;;;;;0.40;0.40;;;;;;;;;;5061870;28;20230;-63
2023/03/27 01:03:32;;;;;;;0.50;0.50;;;;;;;;;;5077864;28;20222;-63
2023/03/27 01:06:02;;;;;;;0.47;0.40;;;;;;;;;;5079739;28;20202;-63
2023/03/27 01:08:31;;;;;;;0.37;0.37;;;;;;;;;;5079398;28;20242;-63
2023/03/27 01:11:07;;;;;;;0.83;0.83;;;;;;;;;;5075747;28;20238;-63
2023/03/27 01:13:44;;;;;;;0.40;0.40;;;;;;;;;;5073916;28;20212;-63
2023/03/27 01:16:15;;;;;;;0.40;0.40;;;;;;;;;;5079339;28;20288;-63
2023/03/27 01:18:52;;;;;;;0.60;0.60;;;;;;;;;;5079325;28;20202;-63
2023/03/27 01:21:35;;;;;;;1.33;0.43;;;;;;;;;;5079356;28;20237;-63
2023/03/27 01:24:20;;;;;;;0.30;0.30;;;;;;;;;;5079177;28;20226;-64
2023/03/27 01:27:03;;;;;;;0.43;0.43;;;;;;;;;;5068818;28;20210;-63
2023/03/27 01:29:47;;;;;;;0.50;0.50;;;;;;;;;;5079104;28;20245;-63
2023/03/27 01:32:32;;;;;;;1.07;1.07;;;;;;;;;;5078928;28;20240;-63
2023/03/27 01:35:15;;;;;;;1.17;0.60;;;;;;;;;;5068826;28;20661;-63
2023/03/27 01:37:51;;;;;;;0.30;0.30;;;;;;;;;;5064686;28;20649;-63
2023/03/27 01:40:23;;;;;;;1.50;0.70;;;;;;;;;;5078224;28;20234;-63
2023/03/27 01:42:54;;;;;;;0.50;0.50;;;;;;;;;;5078783;28;20210;-63
2023/03/27 01:45:25;;;;;;;0.70;0.70;;;;;;;;;;5078775;28;20268;-63
2023/03/27 01:47:56;;;;;;;0.53;0.53;;;;;;;;;;5078383;28;20229;-63
2023/03/27 01:50:27;;;;;;;0.60;0.60;;;;;;;;;;5078437;28;20323;-63
2023/03/27 01:52:58;;;;;;;1.13;0.83;;;;;;;;;;5078708;28;20289;-64
2023/03/27 01:55:30;;;;;;;0.67;0.67;;;;;;;;;;5078352;28;20236;-63
2023/03/27 01:58:02;;;;;;;1.07;0.50;;;;;;;;;;5078253;28;20202;-63
2023/03/27 02:00:30;;;;;;;0.93;0.50;;;;;;;;;;5089648;28;20569;-63
2023/03/27 02:03:20;;;;;;;0.50;0.50;;;;;;;;;;5098429;28;20212;-63
2023/03/27 02:05:51;;;;;;;0.50;0.50;;;;;;;;;;5098683;28;20216;-63
2023/03/27 02:08:23;;;;;;;1.27;0.40;;;;;;;;;;5098489;28;20304;-64
2023/03/27 02:10:54;;;;;;;1.47;0.80;;;;;;;;;;5097935;28;20241;-63
2023/03/27 02:13:25;;;;;;;2.17;0.87;;;;;;;;;;5092304;28;20206;-63
2023/03/27 02:15:55;;;;;;;2.53;0.83;;;;;;;;;;5075085;28;20236;-64
2023/03/27 02:18:26;;;;;;;0.47;0.47;;;;;;;;;;5077956;28;20207;-63
2023/03/27 02:20:54;;;;;;;0.40;0.40;;;;;;;;;;5078216;28;20257;-63
2023/03/27 02:23:22;;;;;;;0.50;0.50;;;;;;;;;;5077776;28;20210;-63
2023/03/27 02:25:53;;;;;;;1.03;0.60;;;;;;;;;;5066164;28;20236;-63
2023/03/27 02:28:35;;;;;;;1.87;0.57;;;;;;;;;;5078195;28;20232;-63
2023/03/27 02:31:09;;;;;;;0.70;0.70;;;;;;;;;;5075562;28;20566;-64
2023/03/27 02:34:04;;;;;;;0.57;0.57;;;;;;;;;;5077952;28;20205;-63
2023/03/27 02:36:39;;;;;;;0.73;0.67;;;;;;;;;;5078059;28;20237;-63
2023/03/27 02:39:08;;;;;;;0.40;0.40;;;;;;;;;;5077967;28;20293;-63
2023/03/27 02:41:38;;;;;;;1.50;0.87;;;;;;;;;;5077386;28;20206;-63
2023/03/27 02:44:10;;;;;;;0.70;0.70;;;;;;;;;;5077716;28;20225;-64
2023/03/27 02:46:43;;;;;;;1.27;0.50;;;;;;;;;;5077589;28;20217;-63
2023/03/27 02:49:14;;;;;;;0.70;0.70;;;;;;;;;;5077591;28;20206;-63
2023/03/27 02:51:43;;;;;;;0.97;0.97;;;;;;;;;;5077638;28;20206;-64
2023/03/27 02:54:12;;;;;;;1.50;0.53;;;;;;;;;;5077610;28;20206;-63
2023/03/27 02:56:43;;;;;;;1.83;0.50;;;;;;;;;;5073748;28;20249;-63
2023/03/27 02:59:13;;;;;;;0.50;0.50;;;;;;;;;;5071055;28;20661;-63
2023/03/27 03:01:44;;;;;;;0.83;0.60;;;;;;;;;;5097776;28;20244;-64
2023/03/27 03:04:15;;;;;;;0.70;0.70;;;;;;;;;;5097692;28;20251;-63
2023/03/27 03:06:43;;;;;;;0.40;0.40;;;;;;;;;;5097637;28;20267;-63
2023/03/27 03:09:13;;;;;;;0.60;0.60;;;;;;;;;;5097752;28;20240;-63
2023/03/27 03:11:46;;;;;;;0.50;0.50;;;;;;;;;;5097190;28;20234;-63
2023/03/27 03:14:14;;;;;;;0.63;0.63;;;;;;;;;;5092952;28;20198;-63
2023/03/27 03:16:43;;;;;;;1.07;0.70;;;;;;;;;;5081345;28;20233;-63
2023/03/27 03:19:12;;;;;;;1.17;0.80;;;;;;;;;;5081467;28;20206;-63
2023/03/27 03:21:40;;;;;;;1.03;0.73;;;;;;;;;;5069260;28;20209;-63
2023/03/27 03:24:09;;;;;;;0.60;0.60;;;;;;;;;;5079591;28;20249;-63
2023/03/27 03:26:37;;;;;;;0.80;0.70;;;;;;;;;;5080868;28;20210;-63
2023/03/27 03:29:05;;;;;;;1.10;0.60;;;;;;;;;;5081056;28;20308;-63
2023/03/27 03:31:43;;;;;;;0.50;0.50;;;;;;;;;;5081319;28;20206;-63
2023/03/27 03:34:14;;;;;;;0.80;0.67;;;;;;;;;;5081330;28;20209;-63
2023/03/27 03:36:47;;;;;;;0.73;0.73;;;;;;;;;;5080918;28;20725;-63
2023/03/27 03:39:17;;;;;;;0.60;0.60;;;;;;;;;;5080929;28;20260;-62
2023/03/27 03:41:45;;;;;;;1.47;0.70;;;;;;;;;;5080601;28;20206;-63
2023/03/27 03:44:13;;;;;;;1.10;0.67;;;;;;;;;;5081073;28;20226;-63
2023/03/27 03:46:41;;;;;;;0.80;0.80;;;;;;;;;;5080660;28;20202;-63
2023/03/27 03:49:09;;;;;;;1.87;0.77;;;;;;;;;;5080748;28;20229;-63
2023/03/27 03:51:38;;;;;;;2.57;0.60;;;;;;;;;;5080938;28;20216;-63
2023/03/27 03:54:08;;;;;;;1.73;0.70;;;;;;;;;;5080777;28;20237;-64
2023/03/27 03:56:40;;;;;;;1.33;0.90;;;;;;;;;;5080487;28;20202;-64
2023/03/27 03:59:08;;;;;;;0.60;0.60;;;;;;;;;;5080746;28;20237;-63
2023/03/27 04:01:36;;;;;;;0.60;0.60;;;;;;;;;;5080413;28;20206;-63
2023/03/27 04:04:06;;;;;;;0.70;0.70;;;;;;;;;;5080499;28;20668;-64
2023/03/27 04:06:36;;;;;;;0.93;0.93;;;;;;;;;;5080663;28;20261;-63
2023/03/27 04:09:06;;;;;;;1.00;0.90;;;;;;;;;;5080287;28;20736;-63
2023/03/27 04:11:34;;;;;;;1.00;1.00;;;;;;;;;;5080057;28;20761;-63
2023/03/27 04:14:02;;;;;;;2.00;0.90;;;;;;;;;;5080591;28;20202;-63
2023/03/27 04:16:30;;;;;;;0.90;0.90;;;;;;;;;;5080380;28;20207;-63
2023/03/27 04:18:59;;;;;;;0.90;0.70;;;;;;;;;;5080245;28;20206;-63
2023/03/27 04:21:27;;;;;;;0.80;0.80;;;;;;;;;;5080479;28;20212;-63
2023/03/27 04:24:01;;;;;;;0.80;0.80;;;;;;;;;;5079971;28;20240;-63
2023/03/27 04:26:31;;;;;;;0.90;0.90;;;;;;;;;;5080126;28;20226;-63
2023/03/27 04:28:59;;;;;;;1.37;1.13;;;;;;;;;;5080034;28;20569;-63
2023/03/27 04:31:29;;;;;;;1.03;0.93;;;;;;;;;;5079958;28;20206;-64
2023/03/27 04:33:57;;;;;;;1.50;1.00;;;;;;;;;;5080090;28;20612;-63
2023/03/27 04:36:25;;;;;;;1.17;1.07;;;;;;;;;;5079874;28;20234;-63
2023/03/27 04:38:55;;;;;;;1.37;0.93;;;;;;;;;;5079730;28;20241;-63
2023/03/27 04:41:22;;;;;;;2.10;1.33;;;;;;;;;;5079603;28;20673;-64
2023/03/27 04:43:52;;;;;;;1.23;0.70;;;;;;;;;;5079950;28;20260;-63
2023/03/27 04:46:20;;;;;;;0.90;0.90;;;;;;;;;;5079472;28;20253;-63
2023/03/27 04:48:49;;;;;;;2.03;1.00;;;;;;;;;;5079689;28;20206;-64
2023/03/27 04:51:17;;;;;;;1.50;1.40;;;;;;;;;;5076864;28;20232;-63
2023/03/27 04:53:45;;;;;;;5.30;1.33;;;;;;;;;;5080466;28;20201;-62
2023/03/27 04:56:13;;;;;;;3.97;1.80;;;;;;;;;;5079826;28;20212;-63
2023/03/27 04:58:45;;;;;;;1.10;1.10;;;;;;;;;;5089303;28;20269;-62
2023/03/27 05:01:16;;;;;;;1.43;0.80;;;;;;;;;;5083052;28;20564;-62
2023/03/27 05:03:44;;;;;;;3.33;1.30;;;;;;;;;;5080750;28;20194;-62
2023/03/27 05:06:12;;;;;;;0.90;0.90;;;;;;;;;;5078863;28;20222;-62
2023/03/27 05:08:40;;;;;;;1.20;0.87;;;;;;;;;;5081807;28;20205;-62
2023/03/27 05:11:09;;;;;;;0.90;0.90;;;;;;;;;;5072204;28;20307;-62
2023/03/27 05:13:37;;;;;;;1.37;1.20;;;;;;;;;;5079483;28;20221;-62
2023/03/27 05:16:08;;;;;;;1.63;1.17;;;;;;;;;;5077553;28;20240;-62
2023/03/27 05:18:37;;;;;;;3.43;1.30;;;;;;;;;;5078556;28;20221;-62
2023/03/27 05:21:09;;;;;;;2.83;1.13;;;;;;;;;;5079863;28;21614;-62
2023/03/27 05:23:37;;;;;;;1.07;1.00;;;;;;;;;;5075747;28;20795;-62
2023/03/27 05:26:05;;;;;;;1.60;1.33;;;;;;;;;;5078650;28;20214;-62
2023/03/27 05:28:33;;;;;;;1.83;1.50;;;;;;;;;;5076822;28;20202;-62
2023/03/27 05:31:01;;;;;;;3.37;1.43;;;;;;;;;;5079558;28;20222;-62
2023/03/27 05:33:29;;;;;;;2.13;1.30;;;;;;;;;;5081445;28;20209;-62
2023/03/27 05:35:58;;;;;;;2.83;1.60;;;;;;;;;;5077707;28;20230;-63
2023/03/27 05:38:26;;;;;;;2.30;2.10;;;;;;;;;;5078093;28;20623;-62
2023/03/27 05:40:55;;;;;;;5.17;2.40;;;;;;;;;;5078318;28;20232;-61
2023/03/27 05:43:23;;;;;;;2.93;1.83;;;;;;;;;;5080116;28;20256;-62
2023/03/27 05:45:51;;;;;;;2.00;1.77;;;;;;;;;;5081176;28;20217;-62
2023/03/27 05:48:20;;;;;;;2.40;1.60;;;;;;;;;;5086180;28;20308;-61
2023/03/27 05:50:48;;;;;;;1.70;1.50;;;;;;;;;;5079724;28;20214;-61
2023/03/27 05:53:17;;;;;;;1.87;1.50;;;;;;;;;;5084477;28;20198;-61
2023/03/27 05:55:45;;;;;;;2.67;1.50;;;;;;;;;;5085819;28;20193;-61
2023/03/27 05:58:13;;;;;;;3.83;1.67;;;;;;;;;;5088191;28;20737;-62
2023/03/27 06:00:42;;;;;;;2.87;1.30;;;;;;;;;;5083764;28;20256;-61
2023/03/27 06:03:11;;;;;;;1.60;1.50;;;;;;;;;;5085519;28;20281;-61
2023/03/27 06:05:40;;;;;;;2.67;1.83;;;;;;;;;;5082685;28;20210;-62
2023/03/27 06:08:09;;;;;;;2.10;1.87;;;;;;;;;;5088107;28;20205;-62
2023/03/27 06:10:42;;;;;;;3.07;1.93;;;;;;;;;;5085283;28;20229;-62
2023/03/27 06:13:12;;;;;;;2.50;2.30;;;;;;;;;;5074282;28;20576;-62
2023/03/27 06:15:41;;;;;;;2.87;1.77;;;;;;;;;;5077357;28;20615;-61
2023/03/27 06:18:10;;;;;;;1.60;1.50;;;;;;;;;;5066535;28;20253;-62
2023/03/27 06:20:38;;;;;;;2.57;1.70;;;;;;;;;;5062082;28;20231;-62
2023/03/27 06:23:08;;;;;;;3.83;2.67;;;;;;;;;;5060718;28;20613;-62
2023/03/27 06:25:37;;;;;;;1.97;1.63;;;;;;;;;;5058803;28;20262;-62
2023/03/27 06:28:08;;;;;;;2.00;1.87;;;;;;;;;;5061135;28;20688;-62
2023/03/27 06:30:37;;;;;;;1.43;1.37;;;;;;;;;;5067778;28;20719;-62
2023/03/27 06:33:06;;;;;;;3.37;2.63;;;;;;;;;;5062927;28;20206;-62
2023/03/27 06:35:35;;;;;;;1.50;1.40;;;;;;;;;;5077404;28;20198;-62
2023/03/27 06:38:03;;;;;;;1.57;1.40;;;;;;;;;;5077205;28;20203;-61
2023/03/27 06:40:34;;;;;;;1.90;1.60;;;;;;;;;;5077086;28;20234;-61
2023/03/27 06:43:03;;;;;;;1.83;1.73;;;;;;;;;;5078204;28;20209;-61
2023/03/27 06:45:33;;;;;;;7.93;1.77;;;;;;;;;;5077511;28;20292;-61
2023/03/27 06:48:02;;;;;;;3.50;1.97;;;;;;;;;;5077051;28;20238;-61
2023/03/27 06:50:46;;;;;;;3.43;1.93;;;;;;;;;;5075444;28;20244;-61
2023/03/27 06:53:16;;;;;;;2.63;2.10;;;;;;;;;;5077320;28;20202;-60
2023/03/27 06:55:47;;;;;;;2.93;2.17;;;;;;;;;;5084799;28;20551;-61
2023/03/27 06:58:17;;;;;;;3.30;1.60;;;;;;;;;;5077867;28;20210;-60
2023/03/27 07:00:48;;;;;;;2.93;2.20;;;;;;;;;;5093178;28;20712;-61
2023/03/27 07:03:16;;;;;;;4.00;2.20;;;;;;;;;;5097733;28;20522;-61
2023/03/27 07:05:44;;;;;;;2.53;1.53;;;;;;;;;;5097632;28;20205;-61
2023/03/27 07:08:13;;;;;;;1.73;1.63;;;;;;;;;;5090594;28;20697;-61
2023/03/27 07:10:44;;;;;;;2.50;2.10;;;;;;;;;;5068497;28;20245;-61
2023/03/27 07:13:32;;;;;;;5.33;2.07;;;;;;;;;;5077460;28;20681;-60
2023/03/27 07:16:02;;;;;;;5.87;2.60;;;;;;;;;;5077669;28;20213;-60
2023/03/27 07:18:30;;;;;;;5.67;2.03;;;;;;;;;;5078477;28;20209;-61
2023/03/27 07:20:58;;;;;;;2.47;1.77;;;;;;;;;;5078118;28;20226;-64
2023/03/27 07:23:26;;;;;;;6.40;2.20;;;;;;;;;;5078219;28;20221;-62
2023/03/27 07:25:56;;;;;;;4.77;1.67;;;;;;;;;;5077121;28;20214;-62
2023/03/27 07:28:25;;;;;;;4.27;2.07;;;;;;;;;;5077496;28;20222;-62
2023/03/27 07:30:53;;;;;;;6.33;2.17;;;;;;;;;;5077156;28;20230;-62
2023/03/27 07:33:23;;;;;;;2.87;1.60;;;;;;;;;;5077404;28;20241;-62
2023/03/27 07:35:51;;;;;;;6.43;1.73;;;;;;;;;;5077013;28;20670;-62
2023/03/27 07:38:19;;;;;;;3.77;2.10;;;;;;;;;;5077250;28;20203;-62
2023/03/27 07:40:49;;;;;;;7.13;4.27;;;;;;;;;;5076382;28;20318;-62
2023/03/27 07:43:17;;;;;;;3.47;2.10;;;;;;;;;;5077155;28;20213;-62
2023/03/27 07:45:45;;;;;;;2.87;1.60;;;;;;;;;;5076663;28;20674;-62
2023/03/27 07:48:14;;;;;;;1.97;1.77;;;;;;;;;;5076406;28;20712;-63
2023/03/27 07:50:45;;;;;;;4.47;2.00;;;;;;;;;;5086032;28;20592;-62
2023/03/27 07:53:13;;;;;;;3.27;2.03;;;;;;;;;;5085159;28;20202;-62
2023/03/27 07:56:01;;;;;;;5.60;1.67;;;;;;;;;;5085741;28;20199;-62
2023/03/27 07:58:29;;;;;;;2.90;1.50;;;;;;;;;;5085833;28;20287;-62
2023/03/27 08:01:00;;;;;;;3.93;1.70;;;;;;;;;;5089475;28;21084;-62
2023/03/27 08:03:30;;;;;;;3.43;1.60;;;;;;;;;;5087290;28;20210;-62
2023/03/27 08:06:00;;;;;;;2.83;1.70;;;;;;;;;;5084099;28;20293;-62
2023/03/27 08:08:28;;;;;;;4.37;1.93;;;;;;;;;;5080720;28;20282;-62
2023/03/27 08:10:57;;;;;;;3.17;1.50;;;;;;;;;;5080981;28;20277;-63
2023/03/27 08:13:25;;;;;;;1.43;1.33;;;;;;;;;;5085049;28;20240;-62
2023/03/27 08:16:01;;;;;;;3.60;2.20;;;;;;;;;;5089962;28;20259;-62
2023/03/27 08:18:29;;;;;;;5.37;2.10;;;;;;;;;;5089775;28;20205;-62
2023/03/27 08:20:58;;;;;;;1.80;1.50;;;;;;;;;;5088078;28;20734;-62
2023/03/27 08:23:27;;;;;;;4.40;1.57;;;;;;;;;;5088928;28;20198;-62
2023/03/27 08:25:59;;;;;;;2.73;1.27;;;;;;;;;;5083540;28;20198;-62
2023/03/27 08:28:27;;;;;;;4.20;1.90;;;;;;;;;;5083056;28;20226;-62
2023/03/27 08:30:55;;;;;;;2.80;1.63;;;;;;;;;;5077022;28;20218;-63
2023/03/27 08:33:29;;;;;;;3.60;1.73;;;;;;;;;;5079739;28;20248;-64
2023/03/27 08:35:57;;;;;;;3.63;1.60;;;;;;;;;;5079667;28;20267;-63
2023/03/27 08:38:31;;;;;;;4.10;1.70;;;;;;;;;;5079804;28;20209;-64
2023/03/27 08:41:00;;;;;;;4.17;1.90;;;;;;;;;;5079178;28;20279;-63
2023/03/27 08:43:30;;;;;;;2.47;1.20;;;;;;;;;;5079874;28;20658;-63
2023/03/27 08:46:00;;;;;;;3.57;1.83;;;;;;;;;;5083509;28;20210;-63
2023/03/27 08:48:30;;;;;;;4.30;1.43;;;;;;;;;;5077305;28;20226;-63
2023/03/27 08:50:59;;;;;;;4.00;1.20;;;;;;;;;;5079825;28;20219;-63
2023/03/27 08:53:32;;;;;;;0.90;0.90;;;;;;;;;;5068993;28;20210;-63
2023/03/27 08:56:02;;;;;;;2.70;1.87;;;;;;;;;;5078621;28;20618;-63
2023/03/27 08:58:31;;;;;;;1.80;1.30;;;;;;;;;;5081478;28;20190;-63
2023/03/27 09:01:01;;;;;;;4.77;1.73;;;;;;;;;;5081407;28;20218;-62
2023/03/27 09:03:33;;;;;;;1.00;1.00;;;;;;;;;;5079124;28;20225;-64
2023/03/27 09:06:05;;;;;;;5.37;1.57;;;;;;;;;;5079997;28;20220;-64
2023/03/27 09:08:41;;;;;;;1.87;1.60;;;;;;;;;;5078941;28;20218;-64
2023/03/27 09:11:14;;;;;;;4.37;1.50;;;;;;;;;;5078178;28;20241;-63
2023/03/27 09:13:44;;;;;;;5.23;2.10;;;;;;;;;;5079209;28;20629;-62
2023/03/27 09:16:15;;;;;;;4.93;2.13;;;;;;;;;;5083166;28;20206;-63
2023/03/27 09:18:46;;;;;;;4.10;2.07;;;;;;;;;;5080177;28;20194;-63
2023/03/27 09:21:18;;;;;;;6.83;2.43;;;;;;;;;;5078344;28;20228;-63
2023/03/27 09:23:48;;;;;;;5.67;1.57;;;;;;;;;;5081052;28;20328;-62
2023/03/27 09:26:18;;;;;;;6.37;1.90;;;;;;;;;;5077252;28;20634;-62
2023/03/27 09:28:49;;;;;;;7.87;3.03;;;;;;;;;;5075421;28;20260;-63
2023/03/27 09:31:25;;;;;;;7.67;3.10;;;;;;;;;;5079466;28;20218;-63
2023/03/27 09:33:54;;;;;;;5.13;2.50;;;;;;;;;;5076288;28;20252;-63
2023/03/27 09:36:23;;;;;;;5.03;2.30;;;;;;;;;;5078698;28;20580;-65
2023/03/27 09:38:57;;;;;;;5.60;2.87;;;;;;;;;;5078551;28;20194;-64
2023/03/27 09:41:26;;;;;;;3.50;2.10;;;;;;;;;;5077690;28;20273;-65
2023/03/27 09:43:58;;;;;;;6.23;1.97;;;;;;;;;;5079615;28;20689;-64
2023/03/27 09:46:27;;;;;;;4.90;2.63;;;;;;;;;;5078042;28;20241;-63
2023/03/27 09:48:58;;;;;;;4.70;2.00;;;;;;;;;;5080031;28;20221;-61
2023/03/27 09:51:37;;;;;;;3.23;2.60;;;;;;;;;;5090014;28;20235;-63
2023/03/27 09:54:07;;;;;;;6.67;1.83;;;;;;;;;;5090338;28;20289;-64
2023/03/27 09:56:36;;;;;;;5.57;2.23;;;;;;;;;;5078040;28;20206;-64
2023/03/27 09:59:09;;;;;;;2.37;1.83;;;;;;;;;;5079492;28;20226;-64
2023/03/27 10:01:37;;;;;;;4.97;1.80;;;;;;;;;;5076888;28;20259;-64
2023/03/27 10:04:12;;;;;;;4.63;2.03;;;;;;;;;;5077879;28;20288;-65
2023/03/27 10:06:43;;;;;;;3.83;1.70;;;;;;;;;;5077956;28;20202;-64
2023/03/27 10:09:21;;;;;;;2.10;1.90;;;;;;;;;;5077781;28;20702;-64
2023/03/27 10:11:49;;;;;;;2.07;1.70;;;;;;;;;;5077420;28;20325;-64
2023/03/27 10:14:18;;;;;;;2.00;1.80;;;;;;;;;;5077551;28;20259;-64
2023/03/27 10:16:46;;;;;;;3.43;1.80;;;;;;;;;;5079426;28;20238;-63
2023/03/27 10:19:26;;;;;;;1.80;1.50;;;;;;;;;;5085679;28;20201;-65
2023/03/27 10:21:55;;;;;;;2.33;1.40;;;;;;;;;;5085446;28;20245;-64
2023/03/27 10:24:30;;;;;;;4.80;2.20;;;;;;;;;;5086468;28;20202;-64
2023/03/27 10:26:59;;;;;;;2.50;1.60;;;;;;;;;;5075462;28;20202;-63
2023/03/27 10:29:28;;;;;;;1.80;1.50;;;;;;;;;;5079556;28;20228;-64
2023/03/27 10:31:57;;;;;;;4.17;1.80;;;;;;;;;;5079025;28;20564;-62
2023/03/27 10:34:31;;;;;;;6.33;2.23;;;;;;;;;;5082015;28;20214;-64
2023/03/27 10:37:02;;;;;;;8.37;3.00;;;;;;;;;;5077383;28;20209;-63
2023/03/27 10:39:34;;;;;;;4.60;2.23;;;;;;;;;;5078157;28;20245;-64
2023/03/27 10:42:05;;;;;;;6.83;2.50;;;;;;;;;;5075745;28;20230;-64
2023/03/27 10:44:33;;;;;;;2.73;2.10;;;;;;;;;;5077325;28;20220;-63
2023/03/27 10:47:01;;;;;;;7.40;3.70;;;;;;;;;;5077123;28;20198;-62
2023/03/27 10:49:32;;;;;;;9.30;2.40;;;;;;;;;;5076750;28;20230;-65
2023/03/27 10:52:07;;;;;;;3.53;2.87;;;;;;;;;;5077423;28;20206;-63
2023/03/27 10:54:42;;;;;;;3.37;2.13;;;;;;;;;;5077356;28;20210;-63
2023/03/27 10:57:12;;;;;;;4.30;2.83;;;;;;;;;;5078378;28;20198;-63
2023/03/27 10:59:43;;;;;;;7.87;2.60;;;;;;;;;;5084455;28;20278;-62
2023/03/27 11:02:13;;;;;;;5.47;2.63;;;;;;;;;;5086861;28;20194;-62
2023/03/27 11:04:43;;;;;;;3.80;2.50;;;;;;;;;;5079230;28;20202;-63
2023/03/27 11:07:16;;;;;;;5.63;2.30;;;;;;;;;;5087280;28;20202;-62
2023/03/27 11:09:52;;;;;;;3.67;2.47;;;;;;;;;;5087262;28;20232;-62
2023/03/27 11:12:21;;;;;;;3.93;2.20;;;;;;;;;;5085366;28;20206;-63
2023/03/27 11:14:51;;;;;;;3.73;2.53;;;;;;;;;;5087262;28;20281;-66
2023/03/27 11:17:21;;;;;;;5.07;2.57;;;;;;;;;;5085148;28;20200;-62
2023/03/27 11:19:52;;;;;;;9.07;3.63;;;;;;;;;;5083362;28;20288;-62
2023/03/27 11:22:23;;;;;;;5.93;2.33;;;;;;;;;;5084808;28;20198;-63
2023/03/27 11:24:54;;;;;;;7.60;2.63;;;;;;;;;;5085854;28;20276;-62
2023/03/27 11:27:25;;;;;;;6.67;2.37;;;;;;;;;;5087017;28;20201;-62
2023/03/27 11:29:58;;;;;;;5.03;2.33;;;;;;;;;;5086011;28;20226;-62
2023/03/27 11:32:28;;;;;;;9.73;2.73;;;;;;;;;;5083136;28;20230;-62
2023/03/27 11:34:58;;;;;;;4.53;2.40;;;;;;;;;;5088240;28;20254;-62
2023/03/27 11:37:36;;;;;;;4.50;2.30;;;;;;;;;;5089149;28;20574;-62
2023/03/27 11:40:09;;;;;;;3.67;2.20;;;;;;;;;;5089546;28;20241;-62
2023/03/27 11:42:39;;;;;;;2.83;2.60;;;;;;;;;;5085945;28;20236;-62
2023/03/27 11:45:14;;;;;;;6.60;2.03;;;;;;;;;;5083352;28;20208;-60
2023/03/27 11:48:06;;;;;;;3.33;1.67;;;;;;;;;;5086081;28;20568;-61
2023/03/27 11:50:42;;;;;;;5.17;2.23;;;;;;;;;;5079792;28;20304;-61
2023/03/27 11:53:17;;;;;;;5.63;2.63;;;;;;;;;;5080486;28;20633;-62
2023/03/27 11:55:58;;;;;;;8.23;2.67;;;;;;;;;;5080880;28;20233;-62
2023/03/27 11:58:32;;;;;;;5.60;1.93;;;;;;;;;;5080098;28;20589;-61
2023/03/27 12:01:06;;;;;;;4.10;2.30;;;;;;;;;;5087194;28;20308;-62
2023/03/27 12:03:42;;;;;;;4.20;1.87;;;;;;;;;;5100689;28;20201;-62
2023/03/27 12:06:14;;;;;;;4.10;2.10;;;;;;;;;;5100854;28;20205;-61
2023/03/27 12:08:59;;;;;;;5.00;1.83;;;;;;;;;;5100765;28;20210;-62
2023/03/27 12:11:29;;;;;;;4.13;2.00;;;;;;;;;;5100364;28;20268;-61
2023/03/27 12:14:18;;;;;;;3.73;1.77;;;;;;;;;;5095024;28;20208;-62
2023/03/27 12:16:58;;;;;;;3.53;1.93;;;;;;;;;;5079054;28;20212;-61
2023/03/27 12:19:43;;;;;;;4.73;1.60;;;;;;;;;;5080503;28;20221;-62
2023/03/27 12:22:16;;;;;;;3.33;1.40;;;;;;;;;;5080305;28;20213;-62
2023/03/27 12:24:57;;;;;;;4.43;1.80;;;;;;;;;;5080276;28;20206;-64
2023/03/27 12:27:43;;;;;;;4.67;1.53;;;;;;;;;;5079939;28;20216;-63
2023/03/27 12:30:21;;;;;;;6.47;1.97;;;;;;;;;;5079970;28;20232;-63
2023/03/27 12:32:58;;;;;;;4.67;1.70;;;;;;;;;;5069438;28;20612;-61
2023/03/27 12:35:28;;;;;;;6.27;1.73;;;;;;;;;;5080256;28;20220;-63
2023/03/27 12:37:59;;;;;;;3.77;1.83;;;;;;;;;;5080035;28;20206;-63
2023/03/27 12:40:30;;;;;;;9.97;1.60;;;;;;;;;;5079789;28;20264;-63
2023/03/27 12:43:10;;;;;;;4.97;1.50;;;;;;;;;;5080010;28;20236;-63
2023/03/27 12:45:38;;;;;;;2.17;1.23;;;;;;;;;;5079902;28;20238;-64
2023/03/27 12:48:26;;;;;;;6.57;1.83;;;;;;;;;;5079921;28;20218;-63
2023/03/27 12:50:55;;;;;;;4.17;1.70;;;;;;;;;;5079820;28;20240;-62
2023/03/27 12:53:43;;;;;;;5.83;1.43;;;;;;;;;;5079688;28;20237;-63
2023/03/27 12:56:35;;;;;;;1.67;1.50;;;;;;;;;;5074316;28;20201;-60
2023/03/27 12:59:18;;;;;;;7.67;1.50;;;;;;;;;;5087311;28;20217;-62
2023/03/27 13:01:54;;;;;;;2.97;1.87;;;;;;;;;;5079455;28;20649;-61
2023/03/27 13:04:30;;;;;;;2.47;1.53;;;;;;;;;;5079748;28;20263;-62
2023/03/27 13:07:03;;;;;;;2.93;1.47;;;;;;;;;;5073238;28;20220;-63
2023/03/27 13:09:43;;;;;;;3.90;1.70;;;;;;;;;;5060298;28;20649;-63
2023/03/27 13:12:19;;;;;;;5.40;1.50;;;;;;;;;;5077851;28;20229;-65
2023/03/27 13:15:05;;;;;;;4.97;1.80;;;;;;;;;;5078863;28;20233;-63
2023/03/27 13:17:44;;;;;;;1.77;1.67;;;;;;;;;;5078775;28;20214;-62
2023/03/27 13:20:18;;;;;;;5.17;1.50;;;;;;;;;;5078961;28;20226;-63
2023/03/27 13:22:55;;;;;;;4.03;1.90;;;;;;;;;;5079044;28;20208;-63
2023/03/27 13:25:41;;;;;;;5.13;2.27;;;;;;;;;;5079299;28;20210;-63
2023/03/27 13:28:27;;;;;;;3.27;2.10;;;;;;;;;;5079418;28;20206;-64
2023/03/27 13:30:56;;;;;;;6.03;1.80;;;;;;;;;;5080408;28;20234;-64
2023/03/27 13:33:26;;;;;;;5.33;2.87;;;;;;;;;;5075628;28;20669;-64
2023/03/27 13:36:07;;;;;;;5.23;2.87;;;;;;;;;;5072856;28;20233;-63
2023/03/27 13:39:08;;;;;;;3.20;2.00;;;;;;;;;;5075892;28;20673;-63
2023/03/27 13:42:06;;;;;;;7.87;2.07;;;;;;;;;;5066339;28;20208;-63
2023/03/27 13:44:39;;;;;;;2.37;1.43;;;;;;;;;;5016678;28;20212;-62
2023/03/27 13:47:14;;;;;;;4.17;1.83;;;;;;;;;;5066053;28;20198;-63
2023/03/27 13:49:55;;;;;;;2.60;1.40;;;;;;;;;;5079069;28;20316;-62
2023/03/27 13:52:32;;;;;;;2.60;1.20;;;;;;;;;;5076986;28;20700;-63
2023/03/27 13:55:24;;;;;;;1.93;1.70;;;;;;;;;;5086026;28;20286;-63
2023/03/27 13:57:57;;;;;;;1.47;1.33;;;;;;;;;;5063579;28;20234;-63
2023/03/27 14:00:36;;;;;;;4.17;1.57;;;;;;;;;;5087213;28;20308;-63
2023/03/27 14:03:17;;;;;;;4.97;1.63;;;;;;;;;;5080175;28;20208;-63
2023/03/27 14:06:03;;;;;;;2.07;1.20;;;;;;;;;;5077864;28;20210;-64
2023/03/27 14:08:35;;;;;;;1.63;1.20;;;;;;;;;;5076167;28;20209;-61
2023/03/27 14:11:11;;;;;;;1.70;1.27;;;;;;;;;;5078804;28;20313;-63
2023/03/27 14:13:46;;;;;;;4.37;1.90;;;;;;;;;;5070810;28;20255;-62
2023/03/27 14:16:26;;;;;;;2.47;1.40;;;;;;;;;;5077597;28;20206;-63
2023/03/27 14:19:15;;;;;;;1.97;1.30;;;;;;;;;;5077997;28;20205;-63
2023/03/27 14:21:52;;;;;;;2.33;1.23;;;;;;;;;;5077657;28;20256;-64
2023/03/27 14:24:24;;;;;;;4.40;1.20;;;;;;;;;;5077684;28;20665;-64
2023/03/27 14:26:53;;;;;;;2.27;1.20;;;;;;;;;;5077183;28;20221;-65
2023/03/27 14:29:21;;;;;;;1.77;1.50;;;;;;;;;;5074377;28;20222;-63
2023/03/27 14:31:49;;;;;;;3.43;1.37;;;;;;;;;;5076966;28;20658;-64
2023/03/27 14:34:23;;;;;;;3.77;1.70;;;;;;;;;;5077702;28;20293;-64
2023/03/27 14:36:51;;;;;;;4.23;1.60;;;;;;;;;;5077511;28;20210;-64
2023/03/27 14:39:20;;;;;;;3.93;1.57;;;;;;;;;;5077486;28;20237;-65
2023/03/27 14:41:51;;;;;;;4.50;1.80;;;;;;;;;;5077170;28;20237;-65
2023/03/27 14:44:20;;;;;;;1.40;1.00;;;;;;;;;;5077576;28;20206;-64
2023/03/27 14:46:48;;;;;;;2.60;1.27;;;;;;;;;;5072490;28;20207;-64
2023/03/27 14:49:19;;;;;;;3.33;1.37;;;;;;;;;;5074382;28;20325;-64
2023/03/27 14:51:52;;;;;;;2.13;1.37;;;;;;;;;;5077270;28;20582;-64
2023/03/27 14:54:26;;;;;;;2.27;1.20;;;;;;;;;;5077532;28;20269;-64
2023/03/27 14:56:55;;;;;;;2.07;1.10;;;;;;;;;;5077217;28;20206;-64
2023/03/27 14:59:25;;;;;;;4.87;1.67;;;;;;;;;;5077140;28;20218;-63
2023/03/27 15:01:55;;;;;;;3.70;1.70;;;;;;;;;;5091049;28;20206;-65
2023/03/27 15:04:24;;;;;;;1.67;1.47;;;;;;;;;;5085160;28;20213;-64
2023/03/27 15:07:11;;;;;;;2.73;1.50;;;;;;;;;;5077415;28;20210;-66
2023/03/27 15:09:40;;;;;;;1.57;1.27;;;;;;;;;;5079703;28;20261;-65
2023/03/27 15:12:10;;;;;;;3.43;1.70;;;;;;;;;;5080965;28;20229;-65